Time;durP1;ratioP1;P1;durP2;ratioP2;P2;SDS_P1;SDS_P2;PMS_P1;PMS_P2;Temp;Humidity;BMP_temperature;BMP_pressure;BME280_temperature;BME280_humidity;BME280_pressure;Samples;Min_cycle;Max_cycle;Signal;HPM_P1;HPM_P2
2023/12/06 00:01:32;;;;;;;50.90;29.47;;;;;;;;;;5032650;28;20891;-81
2023/12/06 00:03:58;;;;;;;56.13;29.57;;;;;;;;;;5032476;28;20458;-81
2023/12/06 00:06:24;;;;;;;50.53;27.63;;;;;;;;;;5032634;28;20483;-80
2023/12/06 00:08:52;;;;;;;47.80;28.73;;;;;;;;;;5032341;28;20403;-80
2023/12/06 00:11:18;;;;;;;60.17;30.43;;;;;;;;;;5032810;28;20424;-81
2023/12/06 00:13:44;;;;;;;53.13;32.07;;;;;;;;;;5032732;28;20775;-81
2023/12/06 00:16:10;;;;;;;57.67;31.60;;;;;;;;;;5032093;28;20432;-85
2023/12/06 00:18:36;;;;;;;52.33;30.07;;;;;;;;;;5032274;28;20421;-82
2023/12/06 00:21:02;;;;;;;57.77;27.33;;;;;;;;;;5032761;28;20437;-85
2023/12/06 00:23:28;;;;;;;62.93;30.70;;;;;;;;;;5033276;28;20881;-82
2023/12/06 00:25:54;;;;;;;57.60;31.73;;;;;;;;;;5035989;28;20939;-81
2023/12/06 00:28:19;;;;;;;54.40;29.60;;;;;;;;;;5043662;28;20419;-83
2023/12/06 00:30:45;;;;;;;54.87;29.27;;;;;;;;;;5029426;28;20468;-79
2023/12/06 00:33:11;;;;;;;64.03;32.30;;;;;;;;;;5044223;28;20443;-81
2023/12/06 00:35:37;;;;;;;60.67;30.67;;;;;;;;;;5040995;28;20437;-84
2023/12/06 00:38:03;;;;;;;57.70;31.40;;;;;;;;;;5019317;28;20921;-85
2023/12/06 00:40:29;;;;;;;54.20;27.50;;;;;;;;;;5035997;28;20417;-84
2023/12/06 00:42:55;;;;;;;53.97;28.60;;;;;;;;;;5035896;28;20551;-83
2023/12/06 00:45:21;;;;;;;53.80;29.73;;;;;;;;;;5035812;28;20480;-80
2023/12/06 00:47:47;;;;;;;60.57;31.67;;;;;;;;;;5017967;28;20423;-86
2023/12/06 00:50:12;;;;;;;57.03;30.70;;;;;;;;;;4995975;28;20824;-80
2023/12/06 00:52:41;;;;;;;55.83;31.17;;;;;;;;;;5035524;28;20425;-86
2023/12/06 00:55:08;;;;;;;54.17;28.07;;;;;;;;;;5035390;28;20917;-81
2023/12/06 00:57:34;;;;;;;69.97;34.83;;;;;;;;;;5035770;28;20417;-79
2023/12/06 01:00:00;;;;;;;63.07;32.90;;;;;;;;;;5035135;28;20508;-84
2023/12/06 01:02:26;;;;;;;64.80;33.57;;;;;;;;;;5017736;28;20502;-80
2023/12/06 01:04:52;;;;;;;61.13;32.37;;;;;;;;;;5035296;28;20500;-80
2023/12/06 01:07:18;;;;;;;58.67;31.10;;;;;;;;;;5035087;28;20410;-82
2023/12/06 01:09:44;;;;;;;54.07;28.20;;;;;;;;;;5035372;28;20444;-82
2023/12/06 01:12:10;;;;;;;61.73;33.80;;;;;;;;;;5034971;28;20457;-84
2023/12/06 01:14:36;;;;;;;55.13;27.50;;;;;;;;;;5035353;28;20427;-79
2023/12/06 01:17:02;;;;;;;54.87;31.80;;;;;;;;;;5035272;28;20424;-85
2023/12/06 01:19:28;;;;;;;57.63;29.23;;;;;;;;;;5035200;28;20413;-79
2023/12/06 01:21:54;;;;;;;55.97;29.90;;;;;;;;;;5034851;28;20409;-83
2023/12/06 01:24:20;;;;;;;66.57;31.77;;;;;;;;;;5034991;28;20468;-79
2023/12/06 01:26:46;;;;;;;66.00;35.10;;;;;;;;;;5035279;28;20425;-80
2023/12/06 01:29:12;;;;;;;60.50;28.83;;;;;;;;;;5034911;28;20889;-84
2023/12/06 01:31:38;;;;;;;68.67;34.43;;;;;;;;;;5035093;28;20468;-85
2023/12/06 01:34:14;;;;;;;61.73;29.63;;;;;;;;;;5034932;28;20941;-84
2023/12/06 01:36:40;;;;;;;69.03;33.53;;;;;;;;;;5033267;28;20397;-79
2023/12/06 01:39:06;;;;;;;71.90;37.70;;;;;;;;;;5034842;28;20401;-87
2023/12/06 01:41:31;;;;;;;66.30;33.70;;;;;;;;;;5034730;28;20910;-81
2023/12/06 01:43:57;;;;;;;63.70;35.40;;;;;;;;;;5016985;28;20469;-79
2023/12/06 01:46:24;;;;;;;62.63;32.10;;;;;;;;;;5034712;28;20424;-86
2023/12/06 01:48:51;;;;;;;67.23;33.47;;;;;;;;;;5035052;28;20416;-82
2023/12/06 01:51:17;;;;;;;69.63;33.27;;;;;;;;;;5016940;28;20427;-81
2023/12/06 01:53:44;;;;;;;59.73;31.47;;;;;;;;;;5016430;28;20796;-86
2023/12/06 01:56:10;;;;;;;58.83;27.37;;;;;;;;;;5034245;28;20482;-82
2023/12/06 01:58:37;;;;;;;72.03;35.37;;;;;;;;;;5017266;28;20420;-80
2023/12/06 02:01:04;;;;;;;65.17;31.57;;;;;;;;;;5034306;28;20781;-81
2023/12/06 02:03:30;;;;;;;74.23;35.73;;;;;;;;;;5016919;28;20422;-81
2023/12/06 02:05:56;;;;;;;58.17;31.93;;;;;;;;;;5016470;28;20771;-86
2023/12/06 02:08:22;;;;;;;63.43;31.70;;;;;;;;;;5033968;28;20417;-87
2023/12/06 02:10:48;;;;;;;56.77;30.00;;;;;;;;;;5034050;28;20419;-84
2023/12/06 02:13:14;;;;;;;57.43;28.10;;;;;;;;;;5016546;28;20416;-85
2023/12/06 02:15:40;;;;;;;68.03;33.50;;;;;;;;;;5033793;28;20477;-84
2023/12/06 02:18:06;;;;;;;61.37;30.27;;;;;;;;;;5033910;28;20501;-81
2023/12/06 02:20:34;;;;;;;62.17;33.93;;;;;;;;;;5032459;28;20422;-83
2023/12/06 02:23:01;;;;;;;59.47;33.00;;;;;;;;;;5033641;28;20943;-81
2023/12/06 02:25:27;;;;;;;58.83;34.07;;;;;;;;;;5016019;28;20483;-84
2023/12/06 02:27:53;;;;;;;58.43;31.80;;;;;;;;;;5033793;28;20497;-86
2023/12/06 02:30:19;;;;;;;57.47;34.43;;;;;;;;;;5033535;28;20842;-83
2023/12/06 02:32:45;;;;;;;58.27;32.23;;;;;;;;;;5033735;28;20413;-86
2023/12/06 02:35:19;;;;;;;56.50;31.80;;;;;;;;;;5033664;28;20462;-84
2023/12/06 02:37:46;;;;;;;60.90;33.57;;;;;;;;;;5033150;28;21004;-83
2023/12/06 02:40:12;;;;;;;55.67;31.97;;;;;;;;;;5033633;28;20766;-83
2023/12/06 02:42:38;;;;;;;56.80;30.70;;;;;;;;;;5033420;28;20407;-81
2023/12/06 02:45:05;;;;;;;59.77;31.87;;;;;;;;;;5033532;28;20822;-81
2023/12/06 02:47:31;;;;;;;57.00;31.57;;;;;;;;;;5032862;28;20416;-86
2023/12/06 02:49:57;;;;;;;58.67;31.57;;;;;;;;;;4989097;28;20440;-82
2023/12/06 02:52:23;;;;;;;65.40;34.30;;;;;;;;;;5053004;28;20481;-81
2023/12/06 02:54:48;;;;;;;64.00;34.30;;;;;;;;;;5053133;28;20415;-86
2023/12/06 02:57:17;;;;;;;67.63;38.33;;;;;;;;;;5053197;28;20421;-83
2023/12/06 02:59:43;;;;;;;63.17;34.20;;;;;;;;;;5052992;28;20502;-82
2023/12/06 03:02:09;;;;;;;65.80;33.40;;;;;;;;;;5053108;28;20558;-80
2023/12/06 03:04:35;;;;;;;65.17;36.23;;;;;;;;;;5053088;28;20805;-83
2023/12/06 03:07:01;;;;;;;65.57;34.33;;;;;;;;;;5052716;28;21048;-80
2023/12/06 03:09:27;;;;;;;57.27;32.40;;;;;;;;;;5052990;28;20418;-82
2023/12/06 03:11:53;;;;;;;57.13;31.37;;;;;;;;;;5053164;28;20759;-82
2023/12/06 03:14:19;;;;;;;63.90;32.70;;;;;;;;;;5052884;28;20420;-87
2023/12/06 03:16:45;;;;;;;71.03;35.73;;;;;;;;;;5052846;28;20748;-83
2023/12/06 03:19:11;;;;;;;64.13;36.13;;;;;;;;;;5052918;28;20423;-86
2023/12/06 03:21:36;;;;;;;64.13;33.90;;;;;;;;;;5052298;28;20462;-81
2023/12/06 03:24:02;;;;;;;62.57;33.23;;;;;;;;;;5052702;28;20462;-81
2023/12/06 03:26:28;;;;;;;71.90;34.30;;;;;;;;;;5052541;28;21129;-82
2023/12/06 03:28:54;;;;;;;73.00;35.53;;;;;;;;;;5052602;28;20416;-83
2023/12/06 03:31:20;;;;;;;61.07;34.07;;;;;;;;;;5052621;28;20984;-77
2023/12/06 03:33:46;;;;;;;58.73;31.70;;;;;;;;;;5043821;28;20428;-81
2023/12/06 03:36:13;;;;;;;68.43;35.30;;;;;;;;;;5031952;28;20422;-83
2023/12/06 03:38:39;;;;;;;62.40;32.57;;;;;;;;;;5032664;28;20420;-82
2023/12/06 03:41:05;;;;;;;61.27;35.90;;;;;;;;;;5032634;28;20390;-80
2023/12/06 03:43:31;;;;;;;58.00;32.80;;;;;;;;;;5032459;28;20419;-83
2023/12/06 03:45:57;;;;;;;61.90;33.40;;;;;;;;;;5032698;28;20785;-84
2023/12/06 03:48:23;;;;;;;61.97;33.60;;;;;;;;;;5032581;28;20405;-83
2023/12/06 03:50:49;;;;;;;67.00;37.43;;;;;;;;;;5032725;28;20449;-86
2023/12/06 03:53:15;;;;;;;63.67;33.80;;;;;;;;;;5032270;28;20413;-79
2023/12/06 03:55:41;;;;;;;62.20;30.70;;;;;;;;;;5032487;28;20417;-84
2023/12/06 03:58:07;;;;;;;65.77;34.20;;;;;;;;;;5032422;28;20909;-81
2023/12/06 04:00:33;;;;;;;68.17;34.57;;;;;;;;;;5034712;28;20448;-85
2023/12/06 04:02:59;;;;;;;67.80;34.03;;;;;;;;;;5036520;28;20547;-82
2023/12/06 04:05:24;;;;;;;64.13;35.33;;;;;;;;;;5036281;28;20472;-83
2023/12/06 04:07:50;;;;;;;61.97;35.10;;;;;;;;;;5036158;28;20500;-85
2023/12/06 04:10:17;;;;;;;63.07;32.57;;;;;;;;;;5036518;28;20464;-81
2023/12/06 04:12:45;;;;;;;53.60;31.67;;;;;;;;;;5036274;28;20456;-80
2023/12/06 04:15:11;;;;;;;62.13;35.07;;;;;;;;;;5036369;28;20501;-85
2023/12/06 04:17:37;;;;;;;64.87;36.50;;;;;;;;;;5036326;28;20439;-86
2023/12/06 04:20:05;;;;;;;59.30;35.17;;;;;;;;;;5036364;28;21000;-86
2023/12/06 04:22:31;;;;;;;63.93;34.80;;;;;;;;;;5035951;28;20402;-81
2023/12/06 04:24:57;;;;;;;64.07;35.23;;;;;;;;;;5036115;28;20487;-84
2023/12/06 04:27:23;;;;;;;61.97;35.50;;;;;;;;;;5036209;28;20415;-83
2023/12/06 04:29:49;;;;;;;65.90;35.03;;;;;;;;;;5035776;28;20906;-82
2023/12/06 04:32:15;;;;;;;59.13;32.43;;;;;;;;;;5036234;28;20408;-84
2023/12/06 04:35:01;;;;;;;67.03;39.53;;;;;;;;;;5018399;28;20798;-85
2023/12/06 04:37:27;;;;;;;69.07;37.30;;;;;;;;;;5035336;28;20445;-81
2023/12/06 04:39:53;;;;;;;66.57;33.83;;;;;;;;;;5018214;28;20858;-84
2023/12/06 04:42:19;;;;;;;65.90;34.50;;;;;;;;;;5035810;28;20506;-82
2023/12/06 04:44:45;;;;;;;71.30;35.80;;;;;;;;;;5035725;28;20468;-81
2023/12/06 04:47:11;;;;;;;60.00;36.27;;;;;;;;;;5035642;28;20411;-82
2023/12/06 04:49:37;;;;;;;73.97;37.70;;;;;;;;;;5035573;28;20908;-82
2023/12/06 04:52:03;;;;;;;65.27;35.07;;;;;;;;;;5047139;28;20822;-86
2023/12/06 04:54:29;;;;;;;70.47;37.40;;;;;;;;;;5045203;28;20964;-80
2023/12/06 04:56:55;;;;;;;67.13;33.80;;;;;;;;;;4998381;28;20437;-81
2023/12/06 04:59:21;;;;;;;62.47;35.13;;;;;;;;;;5035532;28;20459;-86
2023/12/06 05:01:47;;;;;;;65.07;35.30;;;;;;;;;;5034119;28;20409;-84
2023/12/06 05:04:13;;;;;;;66.60;34.63;;;;;;;;;;5035223;28;21002;-82
2023/12/06 05:06:39;;;;;;;72.67;38.70;;;;;;;;;;5031753;28;20433;-82
2023/12/06 05:09:08;;;;;;;71.90;36.20;;;;;;;;;;5035063;28;20797;-87
2023/12/06 05:11:34;;;;;;;71.90;35.83;;;;;;;;;;5035384;28;20409;-85
2023/12/06 05:14:00;;;;;;;75.30;38.47;;;;;;;;;;5026193;28;20420;-84
2023/12/06 05:16:26;;;;;;;72.77;40.87;;;;;;;;;;5049900;28;20433;-83
2023/12/06 05:18:52;;;;;;;72.27;35.87;;;;;;;;;;5035675;28;20431;-79
2023/12/06 05:21:18;;;;;;;75.60;40.70;;;;;;;;;;5035044;28;20444;-79
2023/12/06 05:23:48;;;;;;;63.87;36.50;;;;;;;;;;5035366;28;20905;-78
2023/12/06 05:26:14;;;;;;;72.70;40.13;;;;;;;;;;5035167;28;20418;-81
2023/12/06 05:28:40;;;;;;;74.70;38.50;;;;;;;;;;5035294;28;20434;-79
2023/12/06 05:31:06;;;;;;;75.53;37.10;;;;;;;;;;5034732;28;20486;-79
2023/12/06 05:33:32;;;;;;;66.37;37.10;;;;;;;;;;5035293;28;20425;-78
2023/12/06 05:35:58;;;;;;;77.60;39.37;;;;;;;;;;5034772;28;20452;-79
2023/12/06 05:38:24;;;;;;;70.87;36.70;;;;;;;;;;5035017;28;20411;-78
2023/12/06 05:40:50;;;;;;;74.30;37.87;;;;;;;;;;5035063;28;20765;-80
2023/12/06 05:43:16;;;;;;;69.80;37.37;;;;;;;;;;5034902;28;20416;-75
2023/12/06 05:45:42;;;;;;;70.63;37.30;;;;;;;;;;5034853;28;20480;-79
2023/12/06 05:48:08;;;;;;;76.93;38.63;;;;;;;;;;5034915;28;20444;-82
2023/12/06 05:50:34;;;;;;;78.77;40.10;;;;;;;;;;5034760;28;20429;-83
2023/12/06 05:53:02;;;;;;;84.73;42.30;;;;;;;;;;5046628;28;20504;-79
2023/12/06 05:55:28;;;;;;;83.10;40.87;;;;;;;;;;5054634;28;20420;-79
2023/12/06 05:57:54;;;;;;;78.83;39.73;;;;;;;;;;5035796;28;20491;-80
2023/12/06 06:00:24;;;;;;;82.03;40.63;;;;;;;;;;5033533;28;20504;-82
2023/12/06 06:02:52;;;;;;;91.57;40.63;;;;;;;;;;4992779;28;20425;-83
2023/12/06 06:05:18;;;;;;;83.60;42.70;;;;;;;;;;5033993;28;20461;-81
2023/12/06 06:07:47;;;;;;;85.43;40.87;;;;;;;;;;5033756;28;20804;-84
2023/12/06 06:10:12;;;;;;;90.27;41.67;;;;;;;;;;5020181;28;20788;-82
2023/12/06 06:12:38;;;;;;;86.73;43.30;;;;;;;;;;5033866;28;20432;-83
2023/12/06 06:15:05;;;;;;;80.53;41.30;;;;;;;;;;5033771;28;20426;-80
2023/12/06 06:17:33;;;;;;;80.10;39.80;;;;;;;;;;5033872;28;20429;-80
2023/12/06 06:19:59;;;;;;;85.27;40.90;;;;;;;;;;5033662;28;20425;-80
2023/12/06 06:22:25;;;;;;;95.87;43.90;;;;;;;;;;5032557;28;20433;-85
2023/12/06 06:24:51;;;;;;;89.87;41.47;;;;;;;;;;5033493;28;20473;-84
2023/12/06 06:27:17;;;;;;;92.10;43.30;;;;;;;;;;5033626;28;20741;-83
2023/12/06 06:29:44;;;;;;;82.53;41.77;;;;;;;;;;5033462;28;20804;-86
2023/12/06 06:32:10;;;;;;;83.13;42.80;;;;;;;;;;5031078;28;20418;-85
2023/12/06 06:34:36;;;;;;;88.47;43.63;;;;;;;;;;5033515;28;20503;-87
2023/12/06 06:37:02;;;;;;;82.57;41.87;;;;;;;;;;5032971;28;20405;-84
2023/12/06 06:39:28;;;;;;;78.97;43.50;;;;;;;;;;5033583;28;20463;-87
2023/12/06 06:41:54;;;;;;;90.43;46.30;;;;;;;;;;5033233;28;20894;-87
2023/12/06 06:44:20;;;;;;;86.73;42.70;;;;;;;;;;5033220;28;21022;-84
2023/12/06 06:46:46;;;;;;;93.83;45.30;;;;;;;;;;5034587;28;20414;-86
2023/12/06 06:49:12;;;;;;;96.70;44.80;;;;;;;;;;5033141;28;20425;-85
2023/12/06 06:51:39;;;;;;;95.83;43.70;;;;;;;;;;5032817;28;20417;-85
2023/12/06 06:54:09;;;;;;;89.20;40.83;;;;;;;;;;5033027;28;20917;-84
2023/12/06 06:56:35;;;;;;;92.33;43.93;;;;;;;;;;5019796;28;20426;-85
2023/12/06 06:59:01;;;;;;;88.53;43.27;;;;;;;;;;5033006;28;20421;-82
2023/12/06 07:01:27;;;;;;;91.67;44.63;;;;;;;;;;5032953;28;20409;-81
2023/12/06 07:03:53;;;;;;;93.10;43.67;;;;;;;;;;5032924;28;20461;-82
2023/12/06 07:06:20;;;;;;;101.67;42.63;;;;;;;;;;5032448;28;20425;-83
2023/12/06 07:08:49;;;;;;;96.73;46.77;;;;;;;;;;5032834;28;20502;-81
2023/12/06 07:11:16;;;;;;;90.87;43.10;;;;;;;;;;5032796;28;20409;-83
2023/12/06 07:13:42;;;;;;;91.20;44.07;;;;;;;;;;5015681;28;20408;-78
2023/12/06 07:16:10;;;;;;;83.50;40.90;;;;;;;;;;5011279;28;20415;-82
2023/12/06 07:18:36;;;;;;;94.20;42.03;;;;;;;;;;5032774;28;20437;-78
2023/12/06 07:21:03;;;;;;;82.00;39.80;;;;;;;;;;5032149;28;20507;-79
2023/12/06 07:23:29;;;;;;;85.57;43.30;;;;;;;;;;5032544;28;20416;-81
2023/12/06 07:25:55;;;;;;;82.63;40.50;;;;;;;;;;5032507;28;20515;-83
2023/12/06 07:28:21;;;;;;;99.70;44.30;;;;;;;;;;5021425;28;20992;-87
2023/12/06 07:30:47;;;;;;;94.10;45.63;;;;;;;;;;5021282;28;20541;-87
2023/12/06 07:33:13;;;;;;;96.93;44.30;;;;;;;;;;5032903;28;20521;-83
2023/12/06 07:35:40;;;;;;;92.13;43.20;;;;;;;;;;5032002;28;20410;-88
2023/12/06 07:38:09;;;;;;;94.23;43.77;;;;;;;;;;5032841;28;20425;-87
2023/12/06 07:40:35;;;;;;;86.43;44.23;;;;;;;;;;5032607;28;20493;-82
2023/12/06 07:43:01;;;;;;;84.93;42.87;;;;;;;;;;5032338;28;20498;-80
2023/12/06 07:45:27;;;;;;;102.90;46.67;;;;;;;;;;5032429;28;20470;-87
2023/12/06 07:47:53;;;;;;;89.43;43.13;;;;;;;;;;5032184;28;20417;-84
2023/12/06 07:50:22;;;;;;;83.93;43.20;;;;;;;;;;5032290;28;20414;-80
2023/12/06 07:52:50;;;;;;;88.23;41.93;;;;;;;;;;5032017;28;20422;-80
2023/12/06 07:55:16;;;;;;;97.93;46.20;;;;;;;;;;5032249;28;20418;-83
2023/12/06 07:57:42;;;;;;;89.60;45.60;;;;;;;;;;5032337;28;20402;-80
2023/12/06 08:00:11;;;;;;;83.90;42.13;;;;;;;;;;5032029;28;20447;-77
2023/12/06 08:02:39;;;;;;;94.60;44.53;;;;;;;;;;5032251;28;20813;-84
2023/12/06 08:05:06;;;;;;;87.60;42.43;;;;;;;;;;5031972;28;20458;-79
2023/12/06 08:07:32;;;;;;;85.37;41.27;;;;;;;;;;5031341;28;20413;-81
2023/12/06 08:09:57;;;;;;;94.03;44.00;;;;;;;;;;5032160;28;20421;-89
2023/12/06 08:12:23;;;;;;;90.20;41.10;;;;;;;;;;5032270;28;20417;-80
2023/12/06 08:14:49;;;;;;;92.10;40.43;;;;;;;;;;4988085;28;20488;-85
2023/12/06 08:17:15;;;;;;;99.03;44.40;;;;;;;;;;5032192;28;20544;-84
2023/12/06 08:19:41;;;;;;;88.30;42.73;;;;;;;;;;5032412;28;20421;-79
2023/12/06 08:22:07;;;;;;;82.90;41.17;;;;;;;;;;5031510;28;20402;-88
2023/12/06 08:24:33;;;;;;;86.53;42.27;;;;;;;;;;5032146;28;20983;-84
2023/12/06 08:26:59;;;;;;;98.87;44.77;;;;;;;;;;5031962;28;20409;-81
2023/12/06 08:29:25;;;;;;;93.73;42.57;;;;;;;;;;5032272;28;20413;-81
2023/12/06 08:31:51;;;;;;;84.83;40.47;;;;;;;;;;5018760;28;20516;-84
2023/12/06 08:34:17;;;;;;;89.13;43.80;;;;;;;;;;5017762;28;20455;-79
2023/12/06 08:36:43;;;;;;;91.90;41.90;;;;;;;;;;5018359;28;20455;-80
2023/12/06 08:39:09;;;;;;;94.93;43.53;;;;;;;;;;5029295;28;20436;-80
2023/12/06 08:41:35;;;;;;;87.27;40.60;;;;;;;;;;5032463;28;20420;-84
2023/12/06 08:44:01;;;;;;;83.07;41.27;;;;;;;;;;5032141;28;20456;-80
2023/12/06 08:46:27;;;;;;;77.83;42.30;;;;;;;;;;5035281;28;20437;-80
2023/12/06 08:48:54;;;;;;;87.23;39.87;;;;;;;;;;5023219;28;20423;-80
2023/12/06 08:51:19;;;;;;;89.20;42.30;;;;;;;;;;5035232;28;20432;-85
2023/12/06 08:53:45;;;;;;;75.70;39.57;;;;;;;;;;5035568;28;20410;-82
2023/12/06 08:56:13;;;;;;;84.57;42.80;;;;;;;;;;5035595;28;20437;-81
2023/12/06 08:58:42;;;;;;;86.87;41.47;;;;;;;;;;5035438;28;20437;-88
2023/12/06 09:01:08;;;;;;;73.33;38.40;;;;;;;;;;5036030;28;20421;-86
2023/12/06 09:03:33;;;;;;;87.37;41.40;;;;;;;;;;5035848;28;20774;-87
2023/12/06 09:05:59;;;;;;;83.43;41.40;;;;;;;;;;5023072;28;20789;-88
2023/12/06 09:08:25;;;;;;;82.20;42.90;;;;;;;;;;5035858;28;20428;-89
2023/12/06 09:10:52;;;;;;;84.33;46.37;;;;;;;;;;5036074;28;20436;-85
2023/12/06 09:13:18;;;;;;;89.37;50.70;;;;;;;;;;5036356;28;20445;-88
2023/12/06 09:15:44;;;;;;;98.20;53.27;;;;;;;;;;5036570;28;20519;-87
2023/12/06 09:18:10;;;;;;;98.67;55.97;;;;;;;;;;5029497;28;20452;-81
2023/12/06 09:20:36;;;;;;;92.67;50.17;;;;;;;;;;4995262;28;20433;-88
2023/12/06 09:23:02;;;;;;;83.17;40.93;;;;;;;;;;5036202;28;20535;-89
2023/12/06 09:25:31;;;;;;;74.17;39.63;;;;;;;;;;5035487;28;20514;-82
2023/12/06 09:27:57;;;;;;;88.33;46.43;;;;;;;;;;5035168;28;20508;-84
2023/12/06 09:30:23;;;;;;;86.77;46.07;;;;;;;;;;5034746;28;20536;-83
2023/12/06 09:32:49;;;;;;;78.20;41.50;;;;;;;;;;5024900;28;20423;-81
2023/12/06 09:35:15;;;;;;;73.50;40.30;;;;;;;;;;5034328;28;20431;-86
2023/12/06 09:37:42;;;;;;;71.93;39.07;;;;;;;;;;5034848;28;20413;-86
2023/12/06 09:40:09;;;;;;;72.43;39.43;;;;;;;;;;5034805;28;20452;-83
2023/12/06 09:42:36;;;;;;;71.40;41.07;;;;;;;;;;5035826;28;20429;-85
2023/12/06 09:45:02;;;;;;;78.10;43.20;;;;;;;;;;5042677;28;20440;-84
2023/12/06 09:47:28;;;;;;;75.50;42.77;;;;;;;;;;5035587;28;21619;-84
2023/12/06 09:49:54;;;;;;;80.25;45.05;;;;;;;;;;5032069;28;20418;-83
2023/12/06 09:52:24;;;;;;;80.30;41.10;;;;;;;;;;5036115;28;20197;-88
2023/12/06 09:54:51;;;;;;;79.32;45.75;;;;;;;;;;5036215;28;20455;-86
2023/12/06 09:57:17;;;;;;;76.30;41.63;;;;;;;;;;5034826;28;20231;-85
2023/12/06 09:59:43;;;;;;;75.53;43.27;;;;;;;;;;5055269;28;20427;-83
2023/12/06 10:02:09;;;;;;;69.67;39.90;;;;;;;;;;5051457;28;20414;-81
2023/12/06 10:04:35;;;;;;;78.50;43.80;;;;;;;;;;5035939;28;20560;-87
2023/12/06 10:07:01;;;;;;;77.13;39.03;;;;;;;;;;5035565;28;20410;-87
2023/12/06 10:09:27;;;;;;;72.63;40.50;;;;;;;;;;5046978;28;20429;-79
2023/12/06 10:12:04;;;;;;;75.67;41.47;;;;;;;;;;5019093;28;20423;-85
2023/12/06 10:14:30;;;;;;;81.63;39.77;;;;;;;;;;5035850;28;20507;-85
2023/12/06 10:16:55;;;;;;;77.53;42.20;;;;;;;;;;5037391;28;20819;-88
2023/12/06 10:19:23;;;;;;;84.73;42.83;;;;;;;;;;4995016;28;20525;-84
2023/12/06 10:21:50;;;;;;;78.70;40.27;;;;;;;;;;5034597;28;20425;-84
2023/12/06 10:24:16;;;;;;;81.15;44.50;;;;;;;;;;5034596;28;20438;-86
2023/12/06 10:26:42;;;;;;;82.77;43.70;;;;;;;;;;5035240;28;20253;-81
2023/12/06 10:29:09;;;;;;;75.90;40.63;;;;;;;;;;5034941;28;20504;-86
2023/12/06 10:31:42;;;;;;;79.70;40.87;;;;;;;;;;5034241;28;21007;-86
2023/12/06 10:34:09;;;;;;;78.00;42.73;;;;;;;;;;5034581;28;20781;-86
2023/12/06 10:36:36;;;;;;;83.87;42.30;;;;;;;;;;5034323;28;20409;-85
2023/12/06 10:39:10;;;;;;;76.40;38.80;;;;;;;;;;5016693;28;20917;-87
2023/12/06 10:41:38;;;;;;;74.80;41.63;;;;;;;;;;5034479;28;20418;-80
2023/12/06 10:44:06;;;;;;;73.33;41.50;;;;;;;;;;5034179;28;20872;-86
2023/12/06 10:46:33;;;;;;;77.33;40.97;;;;;;;;;;5035965;28;20427;-82
2023/12/06 10:49:00;;;;;;;84.00;41.23;;;;;;;;;;5036317;28;20409;-88
2023/12/06 10:51:29;;;;;;;97.60;51.15;;;;;;;;;;5033465;28;20425;-85
2023/12/06 10:53:55;;;;;;;83.03;44.80;;;;;;;;;;5034415;28;20182;-89
2023/12/06 10:56:22;;;;;;;79.17;41.90;;;;;;;;;;5034129;28;20948;-87
2023/12/06 10:58:48;;;;;;;78.70;42.87;;;;;;;;;;5033566;28;20961;-88
2023/12/06 11:01:14;;;;;;;96.32;51.63;;;;;;;;;;5032612;28;20412;-86
2023/12/06 11:03:40;;;;;;;82.27;45.03;;;;;;;;;;5023982;28;20259;-86
2023/12/06 11:06:29;;;;;;;79.97;45.17;;;;;;;;;;5032926;28;20429;-84
2023/12/06 11:09:00;;;;;;;81.93;43.00;;;;;;;;;;5022434;28;20560;-86
2023/12/06 11:11:32;;;;;;;82.17;40.97;;;;;;;;;;5032988;28;20417;-82
2023/12/06 11:14:14;;;;;;;81.00;40.13;;;;;;;;;;5033044;28;20401;-86
2023/12/06 11:17:02;;;;;;;81.93;41.00;;;;;;;;;;5029949;28;20425;-79
2023/12/06 11:19:28;;;;;;;89.73;40.80;;;;;;;;;;5030867;28;20541;-83
2023/12/06 11:21:54;;;;;;;88.93;42.23;;;;;;;;;;5032863;28;20937;-81
2023/12/06 11:24:20;;;;;;;83.13;40.77;;;;;;;;;;5033176;28;20452;-79
2023/12/06 11:26:49;;;;;;;86.67;42.17;;;;;;;;;;5033172;28;20422;-77
2023/12/06 11:29:15;;;;;;;91.23;44.77;;;;;;;;;;5033192;28;20412;-77
2023/12/06 11:31:41;;;;;;;87.67;41.80;;;;;;;;;;5013919;28;20468;-79
2023/12/06 11:34:09;;;;;;;104.43;45.60;;;;;;;;;;5013943;28;20423;-79
2023/12/06 11:36:35;;;;;;;96.70;45.30;;;;;;;;;;5032738;28;20448;-78
2023/12/06 11:39:13;;;;;;;98.47;43.33;;;;;;;;;;5033099;28;20771;-82
2023/12/06 11:41:45;;;;;;;98.23;43.77;;;;;;;;;;5033112;28;20776;-81
2023/12/06 11:44:16;;;;;;;87.50;44.03;;;;;;;;;;5033023;28;20457;-82
2023/12/06 11:46:48;;;;;;;100.50;40.10;;;;;;;;;;5032970;28;20435;-84
2023/12/06 11:49:14;;;;;;;97.60;41.40;;;;;;;;;;5032959;28;20409;-77
2023/12/06 11:51:40;;;;;;;92.93;43.80;;;;;;;;;;5031876;28;20495;-82
2023/12/06 11:54:06;;;;;;;101.17;43.10;;;;;;;;;;5032833;28;20900;-81
2023/12/06 11:56:32;;;;;;;94.63;41.87;;;;;;;;;;5032095;28;20448;-81
2023/12/06 11:58:58;;;;;;;97.50;43.50;;;;;;;;;;5032043;28;20460;-80
2023/12/06 12:01:25;;;;;;;94.77;42.33;;;;;;;;;;5029427;28;20429;-78
2023/12/06 12:03:51;;;;;;;97.43;45.17;;;;;;;;;;5032484;28;20416;-80
2023/12/06 12:06:18;;;;;;;101.90;42.57;;;;;;;;;;5031966;28;20433;-81
2023/12/06 12:08:44;;;;;;;106.93;44.63;;;;;;;;;;5032172;28;20414;-77
2023/12/06 12:11:10;;;;;;;100.70;45.03;;;;;;;;;;5031976;28;20419;-77
2023/12/06 12:13:37;;;;;;;81.90;39.60;;;;;;;;;;5034784;28;20426;-80
2023/12/06 12:16:04;;;;;;;80.47;40.70;;;;;;;;;;5048030;28;20904;-78
2023/12/06 12:18:30;;;;;;;102.10;51.47;;;;;;;;;;5051409;28;20415;-79
2023/12/06 12:20:59;;;;;;;95.30;44.40;;;;;;;;;;5047602;28;20480;-78
2023/12/06 12:23:26;;;;;;;108.63;54.72;;;;;;;;;;5043127;28;20413;-80
2023/12/06 12:25:52;;;;;;;97.57;46.50;;;;;;;;;;5036523;28;20218;-76
2023/12/06 12:28:18;;;;;;;88.87;46.57;;;;;;;;;;5036473;28;20954;-77
2023/12/06 12:30:46;;;;;;;89.83;43.60;;;;;;;;;;5036207;28;20957;-81
2023/12/06 12:33:13;;;;;;;90.90;43.20;;;;;;;;;;5036410;28;20418;-77
2023/12/06 12:35:39;;;;;;;95.63;42.57;;;;;;;;;;5035883;28;20415;-77
2023/12/06 12:38:05;;;;;;;96.55;45.42;;;;;;;;;;5035697;28;20414;-76
2023/12/06 12:40:31;;;;;;;97.50;43.27;;;;;;;;;;5008174;28;20191;-80
2023/12/06 12:42:57;;;;;;;96.43;41.30;;;;;;;;;;5055989;28;20797;-78
2023/12/06 12:45:25;;;;;;;90.23;40.70;;;;;;;;;;5055923;28;20474;-77
2023/12/06 12:47:51;;;;;;;90.50;38.93;;;;;;;;;;5056057;28;20418;-78
2023/12/06 12:50:18;;;;;;;100.17;44.13;;;;;;;;;;5055560;28;20925;-79
2023/12/06 12:52:44;;;;;;;89.80;39.97;;;;;;;;;;5055866;28;20409;-78
2023/12/06 12:55:10;;;;;;;99.33;43.77;;;;;;;;;;5055895;28;20416;-79
2023/12/06 12:57:36;;;;;;;95.87;40.13;;;;;;;;;;5055847;28;20414;-77
2023/12/06 13:00:06;;;;;;;93.27;46.00;;;;;;;;;;5055698;28;20784;-77
2023/12/06 13:02:32;;;;;;;89.20;41.10;;;;;;;;;;5055838;28;20420;-82
2023/12/06 13:04:58;;;;;;;117.15;49.08;;;;;;;;;;5054457;28;20547;-77
2023/12/06 13:07:24;;;;;;;105.63;47.23;;;;;;;;;;5055600;28;20248;-77
2023/12/06 13:09:50;;;;;;;91.20;39.33;;;;;;;;;;5055524;28;20761;-77
2023/12/06 13:12:16;;;;;;;102.07;44.07;;;;;;;;;;5037444;28;20427;-77
2023/12/06 13:14:42;;;;;;;98.97;43.10;;;;;;;;;;5055546;28;20416;-77
2023/12/06 13:17:08;;;;;;;100.77;41.90;;;;;;;;;;5055335;28;21005;-82
2023/12/06 13:19:34;;;;;;;96.60;43.37;;;;;;;;;;5055045;28;20476;-80
2023/12/06 13:22:00;;;;;;;102.57;41.47;;;;;;;;;;5055236;28;20417;-85
2023/12/06 13:24:26;;;;;;;98.07;43.83;;;;;;;;;;5055404;28;20455;-81
2023/12/06 13:26:52;;;;;;;104.60;40.53;;;;;;;;;;5055039;28;20765;-80
2023/12/06 13:29:18;;;;;;;103.80;41.50;;;;;;;;;;5035812;28;20425;-77
2023/12/06 13:31:45;;;;;;;109.57;43.43;;;;;;;;;;5035015;28;20469;-78
2023/12/06 13:34:11;;;;;;;100.10;41.00;;;;;;;;;;5034761;28;20406;-83
2023/12/06 13:36:37;;;;;;;103.50;45.13;;;;;;;;;;5034149;28;20463;-80
2023/12/06 13:39:03;;;;;;;115.93;47.80;;;;;;;;;;5024734;28;20909;-77
2023/12/06 13:41:29;;;;;;;104.40;41.57;;;;;;;;;;5006090;28;20927;-85
2023/12/06 13:43:55;;;;;;;96.00;47.90;;;;;;;;;;5034974;28;20413;-82
2023/12/06 13:46:21;;;;;;;107.20;44.73;;;;;;;;;;5034875;28;20469;-81
2023/12/06 13:48:47;;;;;;;111.50;44.80;;;;;;;;;;5034771;28;20453;-81
2023/12/06 13:51:13;;;;;;;89.90;39.47;;;;;;;;;;5034183;28;20508;-81
2023/12/06 13:53:38;;;;;;;112.57;46.67;;;;;;;;;;5034288;28;20430;-82
2023/12/06 13:56:05;;;;;;;99.63;41.77;;;;;;;;;;5034264;28;20475;-81
2023/12/06 13:58:31;;;;;;;102.57;42.03;;;;;;;;;;5034428;28;20424;-84
2023/12/06 14:00:57;;;;;;;108.10;44.67;;;;;;;;;;5034641;28;20776;-79
2023/12/06 14:03:23;;;;;;;103.30;42.53;;;;;;;;;;5034671;28;20987;-82
2023/12/06 14:05:49;;;;;;;90.47;38.27;;;;;;;;;;5034165;28;20507;-83
2023/12/06 14:08:15;;;;;;;119.43;40.67;;;;;;;;;;5034265;28;20452;-84
2023/12/06 14:10:41;;;;;;;106.47;41.00;;;;;;;;;;5034471;28;20901;-85
2023/12/06 14:13:07;;;;;;;95.43;41.00;;;;;;;;;;5034312;28;20415;-84